Date,TemperatureHighF,TemperatureAvgF,TemperatureLowF,DewpointHighF,DewpointAvgF,DewpointLowF,HumidityHigh,HumidityAvg,HumidityLow,PressureMaxIn,PressureMinIn,WindSpeedMaxMPH,WindSpeedAvgMPH,GustSpeedMaxMPH,PrecipitationSumIn
2013-1-1,43,39,35,40,35,30,94,87,79,0.00,40.00,7,4,15,0.01
2013-1-2,42,36,29,32,28,25,86,74,54,0.00,40.00,6,4,11,0.01
2013-1-3,50,34,23,29,25,20,91,70,36,0.00,40.00,6,3,12,0.00
2013-1-4,51,39,28,32,27,20,92,66,31,0.00,40.00,5,2,18,0.00
2013-1-5,51,41,34,37,34,29,91,75,57,0.00,40.00,4,2,10,0.00
2013-1-6,59,39,28,34,26,21,92,67,23,0.00,40.00,5,2,15,0.00
2013-1-7,53,38,25,29,25,22,87,62,30,0.00,40.00,7,3,12,0.00
2013-1-8,50,45,38,48,38,27,93,78,63,0.00,40.00,7,4,13,0.28
2013-1-9,57,54,51,55,52,49,94,93,91,0.00,40.00,12,7,25,1.14
2013-1-10,66,57,47,59,51,43,94,83,61,0.00,40.00,9,5,22,0.20
2013-1-11,72,54,40,51,45,38,94,74,38,0.00,40.00,6,3,12,0.02
2013-1-12,68,57,39,66,53,36,94,89,77,0.00,40.00,9,4,17,1.62
2013-1-13,44,36,26,36,28,20,88,72,52,0.00,40.00,9,6,22,0.07
2013-1-14,47,34,23,26,20,14,84,60,33,0.00,40.00,7,4,14,0.01
2013-1-15,37,32,25,29,25,17,90,75,56,0.00,40.00,7,4,13,0.08
2013-1-16,50,36,25,26,18,7,81,54,19,0.00,40.00,7,4,12,0.02
2013-1-17,59,40,27,31,26,20,83,61,29,0.00,40.00,7,3,19,0.00
2013-1-18,59,41,28,31,27,23,91,63,26,0.00,40.00,5,2,11,0.00
2013-1-19,65,46,30,39,33,25,86,63,38,0.00,40.00,5,2,11,0.00
2013-1-20,68,48,32,43,38,30,93,73,37,0.00,40.00,5,2,12,0.00
2013-1-21,58,46,36,40,35,28,91,67,37,0.00,40.00,6,3,15,0.00
2013-1-22,55,40,29,31,26,21,78,58,36,0.00,40.00,7,4,15,0.00
2013-1-23,71,50,37,53,38,28,92,66,49,0.00,40.00,6,3,9,0.00
2013-1-24,52,46,40,49,41,31,94,82,65,0.00,40.00,9,5,17,0.00
2013-1-25,60,46,40,46,40,33,93,80,59,0.00,40.00,7,3,13,0.00
2013-1-26,47,44,41,42,40,38,93,85,72,0.00,40.00,8,5,17,0.01
2013-1-27,61,50,42,58,48,40,94,93,89,0.00,40.00,6,4,13,0.01
2013-1-28,71,67,64,65,62,59,89,84,76,0.00,40.00,7,4,14,0.00
2013-1-29,72,65,52,66,60,49,92,86,77,0.00,40.00,15,6,32,0.74
2013-1-30,51,43,30,48,32,25,90,67,41,0.00,40.00,15,8,25,0.72
2013-1-31,65,52,24,32,24,18,90,39,16,0.00,40.00,8,5,19,0.00
2013-2-1,52,38,26,24,19,14,85,49,22,0.00,40.00,8,5,15,0.00
2013-2-2,68,47,30,38,28,21,78,51,22,0.00,40.00,8,4,16,0.00
2013-2-3,67,48,30,34,28,20,89,54,17,0.00,40.00,5,2,11,0.00
2013-2-4,51,47,44,48,41,29,93,78,54,0.00,40.00,5,3,8,0.11
2013-2-5,70,54,45,52,48,43,94,83,50,0.00,40.00,3,1,9,0.01
2013-2-6,57,50,44,52,48,42,94,91,79,0.00,40.00,6,4,13,0.21
2013-2-7,61,55,51,58,52,49,94,93,85,0.00,40.00,7,3,14,0.18
2013-2-8,64,51,40,49,38,28,88,64,26,0.00,40.00,7,4,13,0.16
2013-2-9,46,41,38,43,37,33,93,84,74,0.00,40.00,8,6,17,0.13
2013-2-10,66,54,40,55,38,27,94,62,24,0.00,40.00,11,5,18,0.69
2013-2-11,60,49,38,38,31,27,87,52,29,0.00,40.00,5,3,13,0.50
2013-2-12,44,42,35,41,38,32,93,87,74,0.00,40.00,10,4,19,0.41
2013-2-13,54,43,35,39,36,33,91,76,48,0.00,40.00,8,4,15,0.03
2013-2-14,67,45,28,40,33,26,92,68,23,0.00,40.00,7,2,13,0.00
2013-2-15,51,46,32,36,22,11,70,42,21,0.00,40.00,9,6,22,0.00
2013-2-16,51,38,29,25,15,0,73,45,12,0.00,40.00,11,4,20,0.00
2013-2-17,71,48,29,34,25,16,71,44,19,0.00,40.00,8,4,19,0.00
2013-2-18,73,57,50,56,43,31,77,59,33,0.00,40.00,15,6,27,0.00
2013-2-19,61,47,30,32,22,16,81,42,17,0.00,40.00,9,4,15,0.00
2013-2-20,41,36,32,34,30,24,90,80,57,0.00,40.00,10,6,21,0.60
2013-2-21,42,36,33,39,34,28,93,89,83,0.00,40.00,11,6,21,0.65
2013-2-22,52,40,31,37,29,24,94,68,36,0.00,40.00,7,4,13,0.03
2013-2-23,57,40,25,34,28,22,90,66,37,0.00,40.00,6,2,13,0.00
2013-2-24,63,46,29,37,33,27,91,64,34,0.00,40.00,8,5,16,0.00
2013-2-25,51,48,44,47,41,34,92,76,56,0.00,40.00,11,6,22,0.60
2013-2-26,54,42,37,38,33,29,87,71,38,0.00,40.00,13,8,24,0.13
2013-2-27,54,42,30,33,28,23,91,63,35,0.00,40.00,12,6,21,0.01
2013-2-28,56,43,28,29,26,24,85,55,31,0.00,40.00,11,6,19,0.00
2013-3-1,52,40,29,28,24,20,84,56,28,0.00,40.00,11,6,22,0.00
2013-3-2,50,37,28,20,17,14,69,46,24,0.00,40.00,8,6,19,0.00
2013-3-3,64,44,25,32,25,20,86,53,25,0.00,40.00,6,3,16,0.00
2013-3-4,78,59,45,49,43,31,79,58,31,0.00,40.00,7,4,20,0.00
2013-3-5,58,48,32,48,26,15,74,45,21,0.00,40.00,15,9,26,0.00
2013-3-6,62,45,30,30,20,12,72,42,15,0.00,40.00,6,3,12,0.00
2013-3-7,66,50,36,31,29,24,74,48,24,0.00,40.00,8,4,14,0.00
2013-3-8,63,53,42,40,34,31,68,51,34,0.00,40.00,8,5,17,0.00
2013-3-9,66,60,51,58,49,37,80,68,46,0.00,40.00,8,6,17,0.00
2013-3-10,64,50,41,58,42,28,93,75,55,0.00,40.00,13,8,24,1.35
2013-3-11,55,41,30,30,25,18,80,56,25,0.00,40.00,11,6,21,0.38
2013-3-12,67,48,30,37,28,14,90,54,18,0.00,40.00,6,3,11,0.00
2013-3-13,68,52,37,37,25,17,74,42,15,0.00,40.00,7,3,14,0.00
2013-3-14,75,55,36,44,34,25,75,48,27,0.00,40.00,8,4,20,0.00
2013-3-15,81,62,42,52,45,40,91,60,29,0.00,40.00,9,4,22,0.00
2013-3-16,81,65,50,54,50,45,85,61,35,0.00,40.00,8,4,17,0.00
2013-3-17,75,65,56,60,55,49,84,72,55,0.00,40.00,9,4,16,0.00
2013-3-18,66,56,46,52,45,37,92,70,35,0.00,40.00,9,4,17,0.01
2013-3-19,63,51,37,40,34,27,90,57,28,0.00,40.00,8,4,16,0.01
2013-3-20,65,52,37,33,26,18,72,41,17,0.00,40.00,9,4,17,0.00
2013-3-21,46,42,38,37,31,18,86,68,32,0.00,40.00,10,6,19,0.16
2013-3-22,47,43,39,45,41,36,93,91,88,0.00,40.00,9,6,18,0.16
2013-3-23,49,46,43,47,44,41,93,92,88,0.00,40.00,7,4,15,0.22
2013-3-24,48,42,36,46,31,25,94,67,43,0.00,40.00,15,10,28,0.24
2013-3-25,49,38,26,24,18,14,79,47,24,0.00,40.00,14,7,24,0.00
2013-3-26,56,40,26,29,20,15,83,50,21,0.00,40.00,8,4,15,0.00
2013-3-27,68,44,28,28,25,22,88,57,20,0.00,40.00,7,3,15,0.00
2013-3-28,71,67,62,52,50,48,70,55,47,0.00,40.00,6,4,12,0.00
2013-3-29,70,63,58,60,55,51,94,78,62,0.00,40.00,6,3,13,0.15
2013-3-30,67,60,57,61,56,-100,94,90,80,0.00,40.00,7,3,13,0.51
2013-3-31,75,62,54,59,53,46,94,75,39,0.00,40.00,7,3,28,0.99
2013-4-1,79,60,44,54,46,41,93,66,28,0.00,40.00,5,2,10,0.22
2013-4-2,59,52,42,52,44,37,92,74,56,0.00,40.00,13,7,24,0.57
2013-4-3,52,46,42,41,35,29,91,68,46,0.00,40.00,9,7,19,0.56
2013-4-4,51,44,40,43,40,36,92,86,70,0.00,40.00,6,3,11,0.63
2013-4-5,72,55,36,46,39,34,93,62,26,0.00,40.00,4,2,9,0.01
2013-4-6,79,62,47,54,46,42,84,60,30,0.00,40.00,7,3,18,0.00
2013-4-7,72,64,55,59,56,51,86,75,58,0.00,40.00,7,3,17,0.00
2013-4-8,78,70,61,61,58,56,85,68,52,0.00,40.00,7,4,15,0.00
2013-4-9,86,74,66,65,61,57,84,64,41,0.00,40.00,10,6,22,0.00
2013-4-10,76,58,41,67,52,37,91,80,72,0.00,40.00,11,7,26,0.53
2013-4-11,63,48,35,39,34,29,86,64,28,0.00,40.00,9,6,17,0.01
2013-4-12,75,54,37,45,39,35,91,63,24,0.00,40.00,7,3,14,0.01
2013-4-13,79,62,45,46,43,39,88,53,28,0.00,40.00,7,4,16,0.00
2013-4-14,81,66,51,57,51,46,86,61,38,0.00,40.00,8,3,16,0.00
2013-4-15,87,72,61,65,62,56,90,73,44,0.00,40.00,7,4,15,0.00
2013-4-16,88,76,66,68,65,63,90,72,47,0.00,40.00,6,3,16,0.00
2013-4-17,87,78,72,69,67,63,90,70,47,0.00,40.00,9,6,21,0.00
2013-4-18,77,59,45,66,50,31,91,73,54,0.00,40.00,12,8,24,0.75
2013-4-19,62,47,34,39,28,21,88,52,22,0.00,40.00,11,6,21,0.01
2013-4-20,72,54,34,41,36,31,92,58,23,0.00,40.00,6,3,14,0.00
2013-4-21,72,58,44,47,42,38,86,59,29,0.00,40.00,7,3,17,0.00
2013-4-22,78,62,46,48,44,39,79,54,31,0.00,40.00,6,4,16,0.00
2013-4-23,75,60,45,62,51,38,84,73,60,0.00,40.00,9,5,19,0.00
2013-4-24,64,50,39,38,35,30,88,61,28,0.00,40.00,11,5,20,0.15
2013-4-25,73,56,36,46,38,32,91,57,22,0.00,40.00,6,3,13,0.07
2013-4-26,66,57,53,57,49,42,88,75,57,0.00,40.00,8,4,17,0.10
2013-4-27,74,63,55,66,57,52,93,82,70,0.00,40.00,10,5,18,0.02
2013-4-28,81,64,50,58,53,47,92,71,38,0.00,40.00,5,2,10,0.01
2013-4-29,87,70,54,62,56,51,91,67,35,0.00,40.00,7,3,13,0.00
2013-4-30,86,73,54,62,57,51,91,61,38,0.00,40.00,7,3,16,0.00
2013-5-1,80,70,61,64,61,59,93,75,51,0.00,40.00,9,4,19,0.00
2013-5-2,66,58,43,60,51,35,89,77,62,0.00,40.00,11,6,22,0.05
2013-5-3,62,47,38,37,32,23,87,61,22,0.00,40.00,14,7,25,0.07
2013-5-4,58,47,36,38,34,27,91,63,30,0.00,40.00,12,5,23,0.01
2013-5-5,66,52,38,45,39,35,91,66,35,0.00,40.00,9,5,16,0.00
2013-5-6,79,62,45,51,47,42,91,62,33,0.00,40.00,7,4,18,0.00
2013-5-7,83,65,50,56,50,47,92,66,28,0.00,40.00,5,2,9,0.00
2013-5-8,84,70,53,59,56,50,89,64,41,0.00,40.00,6,3,16,0.00
2013-5-9,70,65,61,64,62,58,94,88,73,0.00,40.00,5,2,10,0.11
2013-5-10,80,69,61,66,62,58,94,80,60,0.00,40.00,6,3,12,0.09
2013-5-11,80,68,56,57,50,-100,90,60,29,0.00,40.00,7,4,16,0.01
2013-5-12,77,64,44,51,42,35,89,51,24,0.00,40.00,6,3,12,0.00
2013-5-13,85,66,48,54,47,42,90,59,25,0.00,40.00,6,2,21,0.00
2013-5-14,88,70,50,62,53,47,90,59,26,0.00,40.00,6,3,15,0.00
2013-5-15,80,67,59,66,59,52,92,77,59,0.00,40.00,6,3,17,0.26
2013-5-16,67,58,62,64,40,-100,93,93,90,0.00,40.00,7,3,16,2.98
2013-5-17,82,70,64,74,61,-100,93,89,76,0.00,40.00,5,2,10,0.03
2013-5-18,89,78,70,74,71,68,94,79,57,0.00,40.00,5,3,14,0.00
2013-5-19,89,78,68,71,68,65,93,73,50,0.00,40.00,7,4,19,0.00
2013-5-20,87,77,66,72,68,62,86,73,60,0.00,40.00,10,4,22,0.00
2013-5-21,71,65,60,67,61,58,93,89,78,0.00,40.00,9,5,35,2.05
2013-5-22,84,68,60,64,60,55,93,78,37,0.00,40.00,5,2,12,1.23
2013-5-23,83,70,58,71,64,56,93,83,57,0.00,40.00,6,2,14,0.00
2013-5-24,81,72,66,66,63,59,93,74,57,0.00,40.00,7,5,19,0.00
2013-5-25,81,71,63,70,61,54,84,71,59,0.00,40.00,6,4,16,0.00
2013-5-26,82,74,66,69,65,61,90,77,53,0.00,40.00,5,3,17,0.00
2013-5-27,84,76,68,68,67,66,93,76,57,0.00,40.00,6,3,17,0.00
2013-5-28,86,77,67,67,66,64,90,70,49,0.00,40.00,6,4,17,0.00
2013-5-29,85,76,66,70,67,64,92,75,58,0.00,40.00,8,4,15,0.00
2013-5-30,81,76,72,75,70,66,91,82,72,0.00,40.00,6,4,17,0.34
2013-5-31,91,82,75,74,72,70,87,74,55,0.00,40.00,7,4,17,0.06
2013-6-1,79,73,67,72,69,65,93,87,80,0.00,40.00,6,3,16,0.49
2013-6-2,80,70,61,67,59,56,93,70,45,0.00,40.00,8,3,14,0.03
2013-6-3,85,71,58,66,60,56,92,72,47,0.00,40.00,5,2,12,0.00
2013-6-4,82,71,62,70,64,59,90,79,61,0.00,40.00,7,3,16,0.00
2013-6-5,89,76,66,73,68,62,90,75,54,0.00,40.00,7,3,15,0.00
2013-6-6,78,70,65,69,66,62,93,86,64,0.00,40.00,9,2,18,0.64
2013-6-7,83,71,58,63,57,50,91,65,33,0.00,40.00,6,3,14,0.01
2013-6-8,85,72,56,66,59,54,92,68,39,0.00,40.00,5,2,13,0.00
2013-6-9,87,74,65,71,66,61,92,78,54,0.00,40.00,5,2,11,0.04
2013-6-10,94,80,64,73,69,62,93,70,40,0.00,40.00,7,3,13,0.04
2013-6-11,93,80,66,74,70,64,92,74,48,0.00,40.00,6,2,13,0.00
2013-6-12,91,81,69,74,71,67,92,74,53,0.00,40.00,5,2,13,0.00
2013-6-13,96,82,70,76,72,68,92,73,45,0.00,40.00,7,3,13,0.00
2013-6-14,94,83,74,77,73,69,91,74,52,0.00,40.00,5,3,13,0.00
2013-6-15,89,79,71,73,70,67,92,75,52,0.00,40.00,5,2,11,0.13
2013-6-16,90,78,69,79,72,66,92,83,63,0.00,40.00,9,3,19,2.79
2013-6-17,85,73,67,72,68,65,93,84,61,0.00,40.00,10,3,26,3.57
2013-6-18,86,76,67,70,67,64,92,76,57,0.00,40.00,5,3,11,0.03
2013-6-19,87,76,64,73,67,62,93,77,53,0.00,40.00,5,2,10,0.00
2013-6-20,91,78,69,76,71,67,92,80,53,0.00,40.00,4,2,9,0.00
2013-6-22,92,87,78,75,72,69,82,63,48,0.00,40.00,6,4,11,0.00
2013-6-23,92,82,72,73,71,69,92,73,50,0.00,40.00,6,3,13,0.00
2013-6-24,92,82,71,75,71,69,92,72,47,0.00,40.00,5,3,12,0.00
2013-6-25,90,81,72,74,72,69,91,74,53,0.00,40.00,6,3,14,0.00
2013-6-26,93,82,72,76,72,69,92,73,49,0.00,40.00,6,2,13,0.00
2013-6-27,98,84,72,77,72,69,91,71,44,0.00,40.00,5,2,11,0.00
2013-6-28,98,85,74,75,71,64,92,67,34,0.00,40.00,7,3,15,0.00
2013-6-29,92,82,71,69,61,53,80,53,27,0.00,40.00,9,4,19,0.00
2013-6-30,86,77,66,61,57,54,77,53,35,0.00,40.00,9,4,17,0.00
2013-7-1,87,75,61,61,59,55,88,59,35,0.00,40.00,7,4,16,0.00
2013-7-2,89,76,64,61,55,47,76,52,24,0.00,40.00,6,2,15,0.00
2013-7-3,89,74,60,64,58,51,89,62,27,0.00,40.00,5,2,10,0.00
2013-7-4,90,76,62,65,60,57,85,62,33,0.00,40.00,4,2,8,0.00
2013-7-5,92,78,62,66,62,58,89,63,34,0.00,40.00,4,2,9,0.00
2013-7-6,92,75,64,70,63,59,85,69,33,0.00,40.00,4,2,11,0.00
2013-7-7,95,81,68,73,68,64,89,68,40,0.00,40.00,5,2,12,0.00
2013-7-8,93,81,71,73,70,68,90,73,48,0.00,40.00,6,2,12,0.00
2013-7-9,96,84,71,75,71,68,91,68,40,0.00,40.00,6,3,13,0.00
2013-7-10,100,83,73,77,68,-100,86,68,39,0.00,40.00,6,3,13,0.00
2013-7-11,98,82,72,76,72,68,92,74,45,0.00,40.00,6,2,13,0.26
2013-7-12,95,81,70,74,71,67,92,72,48,0.00,40.00,7,3,12,0.00
2013-7-13,91,78,65,71,63,59,85,63,38,0.00,40.00,4,2,9,0.00
2013-7-14,84,75,69,68,65,62,84,71,53,0.00,40.00,4,2,9,0.00
2013-7-15,85,75,71,71,67,63,92,77,62,0.00,40.00,5,3,22,0.42
2013-7-16,91,85,74,75,71,69,86,66,50,0.00,40.00,6,4,14,0.46
2013-7-17,93,82,73,74,70,68,88,70,45,0.00,40.00,6,3,14,0.00
2013-7-18,97,85,71,73,69,65,90,62,35,0.00,40.00,5,2,11,0.00
2013-7-19,89,77,70,73,70,67,91,80,60,0.00,40.00,6,2,15,0.01
2013-7-20,91,77,70,73,68,-100,92,76,48,0.00,40.00,6,2,12,0.01
2013-7-21,93,81,70,75,72,68,92,75,51,0.00,40.00,5,2,15,0.00
2013-7-22,96,83,72,76,72,69,91,72,47,0.00,40.00,6,3,12,0.00
2013-7-23,96,82,71,80,72,68,92,75,52,0.00,40.00,8,3,22,1.45
2013-7-24,86,76,69,71,68,66,92,80,56,0.00,40.00,7,4,25,2.57
2013-7-25,92,80,71,76,71,67,91,75,50,0.00,40.00,5,2,11,0.05
2013-7-26,74,71,68,71,68,65,92,90,87,0.00,40.00,7,4,17,5.07
2013-7-27,89,77,69,70,67,65,92,74,46,0.00,40.00,6,3,11,1.68
2013-7-28,87,77,67,72,68,65,92,76,54,0.00,40.00,5,2,11,0.00
2013-7-29,91,79,71,75,72,68,91,78,58,0.00,40.00,5,3,14,0.00
2013-7-30,91,81,74,79,73,71,90,78,56,0.00,40.00,4,2,11,0.00
2013-7-31,95,83,73,79,73,69,91,74,49,0.00,40.00,4,2,10,0.00
2013-8-1,93,83,75,77,74,73,92,77,52,0.00,40.00,5,3,11,0.00
2013-8-2,96,83,73,80,75,70,92,78,55,0.00,40.00,5,3,11,0.00
2013-8-3,94,84,73,77,74,71,92,75,52,0.00,40.00,5,2,11,0.00
2013-8-4,95,84,75,78,75,72,91,75,51,0.00,40.00,4,3,10,0.00
2013-8-5,100,85,75,79,73,67,91,71,36,0.00,40.00,5,3,9,0.00
2013-8-6,99,85,72,79,74,69,91,72,43,0.00,40.00,5,2,10,0.00
2013-8-7,97,84,72,79,73,69,91,71,50,0.00,40.00,5,2,11,0.00
2013-8-8,96,85,74,79,74,68,90,71,51,0.00,40.00,9,3,18,0.00
2013-8-9,96,83,72,79,71,67,83,70,45,0.00,40.00,5,3,10,0.00
2013-8-10,98,86,75,76,73,71,88,67,45,0.00,40.00,4,2,10,0.00
2013-8-11,94,81,73,78,73,70,91,77,54,0.00,40.00,6,2,13,0.00
2013-8-12,96,81,72,79,72,69,91,78,48,0.00,40.00,7,2,17,0.16
2013-8-13,89,78,71,73,68,-100,92,77,56,0.00,40.00,6,2,10,0.17
2013-8-14,85,76,67,70,67,63,91,76,50,0.00,40.00,7,3,16,0.01
2013-8-15,85,66,60,66,49,-100,89,66,44,0.00,40.00,5,3,10,0.00
2013-8-16,81,68,61,62,55,-100,86,70,48,0.00,40.00,5,3,11,0.00
2013-8-17,86,72,59,66,58,-100,89,65,39,0.00,40.00,6,2,13,0.00
2013-8-18,89,76,63,67,63,60,91,69,40,0.00,40.00,4,2,9,0.00
2013-8-19,91,73,64,68,53,-100,92,66,33,0.00,40.00,4,2,8,0.00
2013-8-20,92,77,66,68,62,-100,89,65,36,0.00,40.00,4,2,11,0.00
2013-8-21,94,81,67,70,65,59,88,63,31,0.00,40.00,4,2,10,0.00
2013-8-22,98,85,71,72,67,62,84,58,35,0.00,40.00,4,2,9,0.00
2013-8-23,97,83,71,72,69,67,88,66,40,0.00,40.00,5,2,8,0.00
2013-8-24,96,83,72,73,66,-100,88,61,35,0.00,40.00,6,3,13,0.00
2013-8-25,95,83,72,72,69,67,89,65,42,0.00,40.00,6,3,14,0.00
2013-8-26,93,82,71,72,67,61,88,63,35,0.00,40.00,5,3,13,0.00
2013-8-27,91,76,68,70,66,64,87,73,50,0.00,40.00,5,2,9,0.00
2013-8-28,99,90,76,71,66,62,78,49,30,0.00,40.00,6,3,11,0.00
2013-8-29,101,85,71,71,68,64,83,60,31,0.00,40.00,4,2,10,0.00
2013-8-30,101,84,70,70,67,64,85,61,30,0.00,40.00,5,2,9,0.00
2013-8-31,99,83,72,72,67,-100,83,63,36,0.00,40.00,5,2,14,0.00
2013-9-1,101,84,72,72,69,67,86,64,34,0.00,40.00,6,2,14,0.00
2013-9-2,95,81,72,75,71,68,91,74,41,0.00,40.00,7,3,24,0.60
2013-9-3,96,82,72,73,69,66,91,67,40,0.00,40.00,6,3,10,0.08
2013-9-4,96,81,69,67,63,59,79,58,32,0.00,40.00,6,3,11,0.00
2013-9-5,96,80,66,64,60,55,80,53,31,0.00,40.00,5,3,10,0.00
2013-9-6,97,80,67,67,61,56,79,56,27,0.00,40.00,5,3,10,0.00
2013-9-7,99,82,70,71,62,-100,78,56,29,0.00,40.00,5,2,11,0.00
2013-9-8,98,81,67,68,65,60,88,62,29,0.00,40.00,5,2,12,0.00
2013-9-9,96,80,67,67,64,60,87,62,31,0.00,40.00,5,2,12,0.00
2013-9-10,94,80,66,70,65,61,84,63,35,0.00,40.00,6,2,11,0.00
2013-9-11,98,82,70,70,66,62,85,61,31,0.00,40.00,5,2,13,0.00
2013-9-12,95,80,69,70,68,65,89,68,37,0.00,40.00,6,2,21,0.01
2013-9-13,93,79,68,69,67,63,91,70,41,0.00,40.00,7,2,16,0.01
2013-9-14,88,74,64,57,52,-100,68,49,31,0.00,40.00,8,4,16,0.00
2013-9-15,92,74,60,66,58,50,75,60,35,0.00,40.00,5,2,10,0.00
2013-9-16,95,80,67,63,60,54,77,54,30,0.00,40.00,6,2,12,0.00
2013-9-17,91,78,68,68,63,56,76,61,43,0.00,40.00,5,3,10,0.00
2013-9-18,77,74,72,68,66,66,83,77,73,0.00,40.00,2,2,5,0.00
2013-9-19,95,81,70,71,67,65,89,66,39,0.00,40.00,5,3,16,0.02
2013-9-20,74,72,69,70,68,65,92,88,78,0.00,40.00,8,3,14,2.02
2013-9-21,83,70,61,64,50,-100,83,56,26,0.00,40.00,8,4,15,0.01
2013-9-22,82,66,53,57,52,48,89,65,34,0.00,40.00,6,2,13,0.01
2013-9-23,82,67,54,58,54,50,89,67,38,0.00,40.00,6,2,14,0.00
2013-9-24,92,74,61,60,52,40,87,55,17,0.00,40.00,9,4,16,0.00
2013-9-25,91,72,57,60,56,47,90,61,23,0.00,40.00,7,2,15,0.00
2013-9-26,90,73,60,63,59,56,88,66,33,0.00,40.00,5,2,11,0.00
2013-9-27,89,74,63,64,61,59,86,67,38,0.00,40.00,6,3,12,0.00
2013-9-28,83,72,69,73,64,-100,92,79,64,0.00,40.00,6,3,15,1.22
2013-9-29,85,74,67,68,67,64,92,80,49,0.00,40.00,5,2,10,1.12
2013-9-30,83,73,65,71,67,62,92,83,57,0.00,40.00,5,2,12,0.03
2013-10-1,77,74,73,72,71,70,89,88,85,0.00,40.00,2,2,7,0.00
2013-10-2,85,75,71,70,69,68,91,82,57,0.00,40.00,5,3,10,0.00
2013-10-3,86,75,69,71,69,67,92,82,59,0.00,40.00,5,2,11,0.02
2013-10-4,87,76,69,70,68,65,92,78,48,0.00,40.00,6,2,14,0.01
2013-10-5,82,70,53,72,64,49,92,81,66,0.00,40.00,10,5,19,0.20
2013-10-6,72,58,45,51,46,41,91,71,36,0.00,40.00,9,4,17,0.20
2013-10-7,78,61,44,48,43,37,91,61,23,0.00,40.00,5,2,11,0.00
2013-10-8,75,61,50,54,49,47,90,69,39,0.00,40.00,6,2,12,0.00
2013-10-9,78,62,48,57,51,45,90,70,41,0.00,40.00,4,1,8,0.00
2013-10-10,81,68,52,60,56,49,91,68,42,0.00,40.00,5,3,11,0.00
2013-10-11,82,70,58,68,62,55,92,77,61,0.00,40.00,5,3,13,0.00
2013-10-12,82,71,67,72,66,-100,92,85,72,0.00,40.00,6,2,12,0.01
2013-10-13,78,71,66,67,65,62,92,81,63,0.00,40.00,8,3,17,0.01
2013-10-14,67,65,62,65,60,51,92,82,62,0.00,40.00,5,4,11,0.25
2013-10-15,74,67,61,70,65,58,92,91,88,0.00,40.00,7,3,19,1.43
2013-10-16,60,56,54,57,53,50,91,89,87,0.00,40.00,4,3,11,0.76
2013-10-17,71,57,46,53,48,43,91,76,47,0.00,40.00,6,3,11,0.07
2013-10-18,68,57,45,57,51,43,92,80,56,0.00,40.00,4,2,7,0.01
2013-10-19,66,53,43,55,38,-100,90,64,29,0.00,40.00,8,5,21,0.00
2013-10-20,69,52,37,49,42,35,91,73,39,0.00,40.00,5,2,12,0.00
2013-10-21,67,56,48,57,51,45,90,83,63,0.00,40.00,4,2,17,0.32
2013-10-22,71,56,40,52,46,38,91,72,36,0.00,40.00,7,3,12,0.31
2013-10-23,75,58,47,52,47,42,91,71,33,0.00,40.00,5,2,8,0.01
2013-10-24,75,59,46,55,46,40,91,67,36,0.00,40.00,5,2,11,0.00
2013-10-25,61,49,40,42,37,30,87,65,38,0.00,40.00,8,4,19,0.00
2013-10-26,51,46,42,49,41,-100,92,86,81,0.00,40.00,4,2,10,2.11
2013-10-27,69,59,53,57,55,51,92,85,63,0.00,40.00,6,2,10,1.40
2013-10-28,72,61,52,60,54,-100,92,83,63,0.00,40.00,5,2,11,0.01
2013-10-29,77,69,63,66,63,59,90,83,68,0.00,40.00,6,4,13,0.00
2013-10-30,72,66,63,66,62,59,92,86,65,0.00,40.00,6,3,17,0.12
2013-10-31,76,66,49,67,54,41,92,71,28,0.00,40.00,14,5,25,0.16
2013-11-1,77,57,42,51,43,36,91,66,23,0.00,40.00,6,2,12,0.00
2013-11-2,63,53,40,41,36,-100,88,57,29,0.00,40.00,9,4,19,0.00
2013-11-3,65,49,35,43,38,32,91,69,39,0.00,40.00,7,3,13,0.00
2013-11-4,55,52,50,52,48,43,91,84,74,0.00,40.00,4,3,9,0.25
2013-11-5,65,60,55,63,58,52,92,90,86,0.00,40.00,5,4,11,1.99
2013-11-6,68,55,38,66,50,37,97,84,66,0.00,40.00,10,6,21,2.72
2013-11-7,63,47,33,47,40,33,100,81,45,0.00,40.00,5,2,10,0.01
2013-11-8,66,53,39,47,42,39,100,72,37,0.00,40.00,6,3,12,0.00
2013-11-9,56,52,50,53,48,-100,96,91,84,0.00,40.00,4,2,7,0.01
2013-11-10,70,60,50,54,51,47,100,77,46,0.00,40.00,5,1,11,0.01
2013-11-11,71,57,44,55,50,44,100,81,50,0.00,40.00,4,1,8,0.00
2013-11-12,60,49,33,54,34,20,100,60,33,0.00,40.00,9,5,19,0.00
2013-11-13,52,37,24,29,22,17,96,63,25,0.00,40.00,5,2,10,0.00
2013-11-14,55,41,26,40,29,24,96,67,34,0.00,40.00,6,2,12,0.00
2013-11-15,56,48,43,56,47,38,100,96,73,0.00,40.00,4,3,9,0.11
2013-11-16,72,62,56,69,60,-100,100,95,83,0.00,40.00,5,4,12,0.01
2013-11-17,84,74,66,70,59,32,91,63,28,0.00,40.00,9,5,21,0.01
2013-11-18,70,58,43,41,32,24,76,41,22,0.00,40.00,8,4,21,0.00
2013-11-19,62,53,46,42,33,24,79,49,23,0.00,40.00,8,4,16,0.00
2013-11-20,63,54,40,40,35,32,76,51,33,0.00,40.00,5,4,13,0.00
2013-11-21,61,57,52,61,54,39,100,90,50,0.00,40.00,5,4,14,0.64
2013-11-22,61,44,40,61,43,38,100,95,83,0.00,40.00,8,4,20,1.72
2013-11-23,48,42,35,41,33,-100,99,75,51,0.00,40.00,5,4,16,0.98
2013-11-24,38,34,30,31,20,11,87,58,34,0.00,40.00,7,4,14,0.02
2013-11-25,36,33,30,36,31,20,100,93,60,0.00,40.00,5,3,12,0.30
2013-11-26,50,41,35,36,31,21,100,70,48,0.00,40.00,11,6,19,0.03
2013-11-27,47,34,25,25,17,10,93,52,24,0.00,40.00,7,3,15,0.00
2013-11-28,52,33,21,30,24,20,97,75,37,0.00,40.00,4,1,9,0.00
2013-11-29,56,38,23,34,29,22,99,75,31,0.00,40.00,5,1,9,0.00
2013-11-30,64,47,32,48,38,-100,94,73,48,0.00,40.00,6,2,14,0.00
2013-12-1,62,55,50,56,51,47,95,87,75,0.00,40.00,3,2,7,0.00
2013-12-2,65,54,42,56,52,42,100,92,65,0.00,40.00,4,1,7,0.00
2013-12-3,58,49,41,56,49,41,100,100,94,0.00,40.00,5,2,10,0.00
2013-12-4,76,61,51,62,54,46,100,81,51,0.00,40.00,6,3,11,0.01
2013-12-5,50,38,33,44,34,28,100,88,66,0.00,40.00,8,5,16,0.98
2013-12-6,35,31,26,35,30,23,100,94,87,0.00,40.00,8,4,14,1.51
2013-12-7,34,29,25,26,22,-100,90,79,67,0.00,40.00,8,6,15,0.01
2013-12-8,34,30,26,34,28,21,100,91,76,0.00,40.00,6,3,12,0.01
2013-12-9,35,33,31,34,30,26,100,87,76,0.00,40.00,7,4,13,0.01
2013-12-10,46,33,22,30,24,19,99,73,42,0.00,40.00,6,3,14,0.00
2013-12-11,47,33,21,33,27,20,98,80,53,0.00,40.00,6,2,10,0.00
2013-12-12,50,33,21,27,23,19,97,71,31,0.00,40.00,5,1,9,0.00
2013-12-13,38,36,33,38,32,24,100,87,62,0.00,40.00,4,3,10,0.80
2013-12-14,44,38,30,42,34,-100,100,89,76,0.00,40.00,9,4,18,0.29
2013-12-15,56,38,25,34,30,24,97,77,39,0.00,40.00,5,2,11,0.00
2013-12-16,64,41,27,38,33,27,100,78,35,0.00,40.00,4,1,10,0.00
2013-12-17,70,47,29,43,35,29,100,70,35,0.00,40.00,4,2,8,0.00
2013-12-18,67,50,34,43,38,31,96,65,35,0.00,40.00,6,3,13,0.00
2013-12-19,67,57,44,61,51,41,99,83,66,0.00,40.00,8,4,16,0.00
2013-12-20,69,63,55,66,61,54,100,93,84,0.00,40.00,6,3,12,0.03
2013-12-21,55,48,42,55,47,-100,100,99,96,0.00,40.00,11,5,18,1.56
2013-12-22,42,36,31,42,32,23,100,83,73,0.00,40.00,9,7,16,0.02
2013-12-23,46,33,23,27,25,22,97,74,43,0.00,40.00,6,3,11,0.00
2013-12-24,46,33,22,31,27,21,98,82,50,0.00,40.00,6,3,12,0.00
2013-12-25,50,37,28,36,32,27,98,83,54,0.00,40.00,4,3,10,0.00
2013-12-26,55,37,26,35,31,26,100,82,41,0.00,40.00,6,1,11,0.00
2013-12-27,59,41,29,36,33,29,100,79,33,0.00,40.00,4,1,7,0.00
2013-12-28,58,43,34,39,34,-100,99,74,45,0.00,40.00,5,1,9,0.00
2013-12-29,59,42,34,39,33,24,95,73,48,0.00,40.00,8,4,16,0.00
2013-12-30,40,32,25,29,27,23,98,82,63,0.00,40.00,5,2,9,0.00
2013-12-31,52,34,19,29,24,17,96,73,36,0.00,40.00,6,2,13,0.00
2014-1-1,63,42,28,45,35,27,98,79,48,0.00,40.00,11,4,18,0.00
2014-1-2,43,32,23,30,17,14,69,55,33,0.00,40.00,12,7,24,0.00